»·PEaware :: N3955 KVCV-KBFL

N3955 :: KVCV-KBFL

FLIGHT INFORMATION

Flight Status: Arrived
Operator: Privately registered:
United States
More flights under this callsign
Pilot: Ross W. (20449)
Aircraft: BRITISH AERO HAWK T45 GOSHAWK
(HAWK)
More flights by this aircraft type
Origin: KVCV Socal Logistics
United States
Destination: KBFL Meadows
United States
More flights between these airports :: More routes between these airports
Route:
File this flight plan on PilotEdge
Remarks:
Altitude:
(Current/Filed)
12,500ft
Speed:
(Current/Filed)
300kts
Departed: 09-Oct-18 12:00 PM
Arrived: 09-Oct-18 12:24 PM
Distance/Time
Traveled:
96nm/0:24
Distance/Time
To Go:
Arrived

Flight Plot

Page will automatically refresh every two minutes.


Map Options




Map Legend


Flown Route
Filed Route
Departure Airport
Arrival Airport
Navaid (VOR, NDB)
Fix

Horizontal Profiles

Position Reports

Time Latitude Longitude Heading Altitude Ground
Speed
09-Oct-18 11:43 34.587919 -117.375509 317 2871ft 0kts
09-Oct-18 11:44 34.587919 -117.375509 317 2871ft 0kts
09-Oct-18 11:45 34.587920 -117.375509 317 2871ft 0kts
09-Oct-18 11:46 34.587920 -117.375509 317 2871ft 0kts
09-Oct-18 11:47 34.587920 -117.375509 317 2871ft 0kts
09-Oct-18 11:48 34.587920 -117.375509 317 2871ft 0kts
09-Oct-18 11:49 34.587920 -117.375509 317 2871ft 0kts
09-Oct-18 11:50 34.587920 -117.375509 317 2871ft 0kts
09-Oct-18 11:51 34.587920 -117.375509 316 2871ft 0kts
09-Oct-18 11:52 34.587920 -117.375509 316 2871ft 0kts
09-Oct-18 11:53 34.587920 -117.375509 316 2871ft 0kts
09-Oct-18 11:54 34.587920 -117.375509 316 2871ft 0kts
09-Oct-18 11:55 34.587920 -117.375509 316 2871ft 0kts
09-Oct-18 11:56 34.587920 -117.375509 316 2871ft 0kts
09-Oct-18 11:57 34.590171 -117.376012 44 2869ft 18kts
09-Oct-18 11:58 34.593305 -117.368246 87 2859ft 16kts
09-Oct-18 11:59 34.599121 -117.366603 11 2845ft 3kts
09-Oct-18 12:00 34.599150 -117.366597 10 2844ft 0kts
09-Oct-18 12:01 34.600244 -117.366668 301 2843ft 17kts
09-Oct-18 12:02 34.584632 -117.385668 231 3466ft 180kts
09-Oct-18 12:03 34.583298 -117.442364 273 6957ft 177kts
09-Oct-18 12:04 34.588193 -117.500838 276 9666ft 199kts
09-Oct-18 12:05 34.588271 -117.568268 270 12428ft 217kts
09-Oct-18 12:06 34.587424 -117.663027 273 12470ft 332kts
09-Oct-18 12:07 34.592778 -117.782617 273 12464ft 377kts
09-Oct-18 12:08 34.598912 -117.914384 274 12456ft 404kts
09-Oct-18 12:09 34.624687 -118.047469 301 12474ft 416kts
09-Oct-18 12:10 34.684545 -118.169754 301 12456ft 425kts
09-Oct-18 12:11 34.745131 -118.293215 301 12451ft 430kts
09-Oct-18 12:12 34.806570 -118.418291 301 12455ft 433kts
09-Oct-18 12:13 34.868266 -118.543780 301 12477ft 434kts
09-Oct-18 12:14 34.941486 -118.654781 323 12485ft 433kts
09-Oct-18 12:15 35.022203 -118.727000 323 10143ft 273kts
09-Oct-18 12:16 35.073098 -118.772411 323 8057ft 203kts
09-Oct-18 12:17 35.116942 -118.809569 325 5787ft 189kts
09-Oct-18 12:18 35.153134 -118.838469 327 5505ft 135kts
09-Oct-18 12:19 35.186190 -118.862132 333 5240ft 140kts
09-Oct-18 12:20 35.226960 -118.884075 329 5656ft 172kts
09-Oct-18 12:21 35.268774 -118.920582 323 4697ft 192kts
09-Oct-18 12:22 35.309695 -118.961417 320 3862ft 189kts
09-Oct-18 12:23 35.350329 -119.000820 341 2871ft 195kts
09-Oct-18 12:24 35.390950 -119.006006 343 1920ft 138kts
09-Oct-18 12:25 35.419385 -119.038753 313 764ft 148kts
09-Oct-18 12:26 35.439886 -119.062675 355 498ft 21kts
09-Oct-18 12:27 35.440269 -119.062641 31 499ft 0kts
09-Oct-18 12:28 35.440243 -119.061702 135 501ft 14kts
09-Oct-18 12:29 35.434774 -119.055093 134 493ft 14kts
09-Oct-18 12:30 35.435186 -119.053376 300 501ft 0kts
09-Oct-18 12:31 35.435186 -119.053375 301 501ft 0kts
09-Oct-18 12:32 35.435186 -119.053375 301 501ft 0kts
09-Oct-18 12:33 35.435186 -119.053375 301 501ft 0kts
09-Oct-18 12:34 35.435186 -119.053375 301 501ft 0kts
09-Oct-18 12:35 35.435186 -119.053375 301 501ft 0kts
09-Oct-18 12:36 35.435186 -119.053375 301 501ft 0kts

Navigation Log

Ident Type
1. KVCV Airport
2. KBFL Airport